createdAt,value
2022-09-26T00:03:52.842Z,9.45
2022-09-26T00:08:56.098Z,8.88
2022-09-26T00:14:02.352Z,9.13
2022-09-26T00:19:05.315Z,9.18
2022-09-26T00:24:08.374Z,8.90
2022-09-26T00:29:12.806Z,9.25
2022-09-26T00:34:18.421Z,9.30
2022-09-26T00:39:20.992Z,8.45
2022-09-26T00:44:44.999Z,9.82
2022-09-26T00:49:51.089Z,8.75
2022-09-26T00:54:56.806Z,9.80
2022-09-26T01:00:03.107Z,9.40
2022-09-26T01:05:07.281Z,8.93
2022-09-26T01:10:10.438Z,9.35
2022-09-26T01:15:14.842Z,9.13
2022-09-26T01:20:26.629Z,9.15
2022-09-26T01:25:29.190Z,9.23
2022-09-26T01:30:40.147Z,9.30
2022-09-26T01:36:02.738Z,8.98
2022-09-26T01:41:33.048Z,9.77
2022-09-26T01:46:55.410Z,8.50
2022-09-26T01:52:10.552Z,8.67
2022-09-26T01:57:26.613Z,8.50
2022-09-26T02:02:36.141Z,8.50
2022-09-26T02:07:56.302Z,8.48
2022-09-26T02:13:15.055Z,8.43
2022-09-26T02:18:23.905Z,8.20
2022-09-26T02:23:26.497Z,8.55
2022-09-26T02:28:31.366Z,8.55
2022-09-26T02:33:35.246Z,7.68
2022-09-26T02:38:38.032Z,8.13
2022-09-26T02:44:10.896Z,7.47
2022-09-26T02:49:45.486Z,7.25
2022-09-26T02:55:19.935Z,7.10
2022-09-26T03:00:25.177Z,6.57
2022-09-26T03:05:31.116Z,6.97
2022-09-26T03:10:38.473Z,7.38
2022-09-26T03:15:45.374Z,7.38
2022-09-26T03:20:48.979Z,6.78
2022-09-26T03:26:05.015Z,7.68
2022-09-26T03:31:08.410Z,8.15
2022-09-26T03:36:25.625Z,8.02
2022-09-26T03:41:28.661Z,7.75
2022-09-26T03:46:41.179Z,7.72
2022-09-26T03:51:46.028Z,8.18
2022-09-26T03:56:48.688Z,8.02
2022-09-26T04:01:52.463Z,8.00
2022-09-26T04:06:55.214Z,7.90
2022-09-26T04:11:57.847Z,7.70
2022-09-26T04:17:00.418Z,7.28
2022-09-26T04:22:10.424Z,6.90
2022-09-26T04:27:13.750Z,6.60
2022-09-26T04:32:17.644Z,5.72
2022-09-26T04:37:39.065Z,5.53
2022-09-26T04:42:42.729Z,5.45
2022-09-26T04:47:45.459Z,4.88
2022-09-26T04:53:09.246Z,4.55
2022-09-26T04:58:17.201Z,4.40
2022-09-26T05:03:20.428Z,3.90
2022-09-26T05:08:24.271Z,4.03
2022-09-26T05:13:27.391Z,2.97
2022-09-26T05:18:31.668Z,4.00
2022-09-26T05:23:53.820Z,3.40
2022-09-26T05:34:20.421Z,2.75
2022-09-26T05:39:42.626Z,3.20
2022-09-26T05:44:47.362Z,3.28
2022-09-26T05:49:50.245Z,2.83
2022-09-26T05:54:59.346Z,2.75
2022-09-26T06:00:22.339Z,2.55
2022-09-26T06:05:26.069Z,2.63
2022-09-26T06:10:51.260Z,1.90
2022-09-26T06:15:55.124Z,1.38
2022-09-26T06:20:57.828Z,1.52
2022-09-26T06:26:01.070Z,1.27
2022-09-26T06:31:17.157Z,1.05
2022-09-26T06:36:39.690Z,1.23
2022-09-26T06:41:43.060Z,1.83
2022-09-26T06:47:18.251Z,1.30
2022-09-26T06:52:21.631Z,1.33
2022-09-26T06:57:24.601Z,2.08
2022-09-26T07:02:27.467Z,2.20
2022-09-26T07:07:43.447Z,1.83
2022-09-26T07:13:01.153Z,1.45
2022-09-26T07:18:06.489Z,1.25
2022-09-26T07:23:29.849Z,1.25
2022-09-26T07:28:32.517Z,1.30
2022-09-26T07:33:35.446Z,0.80
2022-09-26T07:38:43.876Z,0.60
2022-09-26T07:44:46.234Z,0.60
2022-09-26T07:49:33.022Z,0.70
2022-09-26T07:54:36.962Z,0.88
2022-09-26T07:59:59.414Z,0.60
2022-09-26T08:05:28.089Z,1.02
2022-09-26T08:10:32.497Z,0.70
2022-09-26T08:16:04.291Z,0.80
2022-09-26T08:21:07.620Z,0.90
2022-09-26T08:26:10.711Z,0.60
2022-09-26T08:31:18.856Z,0.70
2022-09-26T08:36:22.408Z,0.50
2022-09-26T08:41:47.566Z,0.45
2022-09-26T08:47:50.482Z,1.05
2022-09-26T08:53:20.497Z,0.60
2022-09-26T08:58:52.486Z,0.65
2022-09-26T09:04:26.344Z,0.73
2022-09-26T09:09:29.906Z,0.73
2022-09-26T09:15:25.583Z,0.90
2022-09-26T09:21:31.129Z,0.85
2022-09-26T09:32:44.638Z,0.77
2022-09-26T09:37:54.065Z,1.20
2022-09-26T09:43:45.224Z,0.80
2022-09-26T09:48:48.368Z,0.70
2022-09-26T09:54:34.725Z,1.60
2022-09-26T10:00:04.693Z,0.60
2022-09-26T10:05:24.132Z,0.30
2022-09-26T10:10:46.669Z,0.50
2022-09-26T10:16:09.790Z,0.40
2022-09-26T10:21:35.390Z,0.50
2022-09-26T10:26:39.447Z,0.50
2022-09-26T10:31:43.877Z,0.60
2022-09-26T10:36:53.144Z,0.40
2022-09-26T10:41:58.692Z,0.50
2022-09-26T10:47:10.551Z,0.60
2022-09-26T10:52:50.758Z,0.40
2022-09-26T10:57:58.847Z,0.52
2022-09-26T11:03:03.677Z,0.52
2022-09-26T11:08:10.762Z,0.70
2022-09-26T11:13:24.118Z,0.60
2022-09-26T11:18:45.380Z,0.60
2022-09-26T11:24:06.475Z,0.63
2022-09-26T11:29:09.041Z,0.60
2022-09-26T11:34:27.859Z,0.60
2022-09-26T11:40:00.886Z,0.70
2022-09-26T11:45:23.021Z,0.73
2022-09-26T11:51:10.502Z,0.50
2022-09-26T11:56:39.055Z,0.40
2022-09-26T12:01:55.974Z,0.60
2022-09-26T12:07:07.683Z,0.68
2022-09-26T12:12:35.940Z,0.60
2022-09-26T12:23:34.072Z,0.60
2022-09-26T12:29:02.857Z,0.80
2022-09-26T12:34:31.660Z,1.23
2022-09-26T12:40:10.891Z,0.60
2022-09-26T12:45:34.586Z,0.73
2022-09-26T12:50:53.317Z,0.65
2022-09-26T12:56:11.551Z,0.55
2022-09-26T13:01:23.797Z,0.40
2022-09-26T13:06:48.921Z,0.50
2022-09-26T13:12:26.611Z,0.80
2022-09-26T13:17:36.345Z,1.08
2022-09-26T13:22:58.670Z,0.80
2022-09-26T13:28:09.698Z,0.70
2022-09-26T13:33:42.984Z,0.45
2022-09-26T13:38:58.126Z,0.77
2022-09-26T13:44:29.805Z,0.88
2022-09-26T13:49:44.125Z,0.60
2022-09-26T13:55:14.904Z,0.68
2022-09-26T14:00:29.394Z,0.93
2022-09-26T14:05:48.015Z,0.75
2022-09-26T14:11:12.026Z,0.70
2022-09-26T14:16:35.922Z,1.00
2022-09-26T14:22:00.725Z,0.90
2022-09-26T14:27:04.009Z,0.82
2022-09-26T14:32:12.580Z,0.90
2022-09-26T14:37:24.483Z,0.70
2022-09-26T14:42:33.022Z,1.40
2022-09-26T14:47:43.572Z,1.10
2022-09-26T14:53:00.363Z,1.30
2022-09-26T14:58:38.342Z,1.17
2022-09-26T15:03:41.454Z,1.35
2022-09-26T15:08:44.257Z,1.10
2022-09-26T15:13:48.459Z,1.10
2022-09-26T15:19:03.474Z,1.48
2022-09-26T15:24:25.627Z,1.77
2022-09-26T15:34:39.803Z,1.65
2022-09-26T15:39:43.122Z,2.28
2022-09-26T15:44:55.155Z,1.88
2022-09-26T15:55:20.195Z,2.38
2022-09-26T16:00:23.012Z,1.83
2022-09-26T16:05:27.282Z,2.28
2022-09-26T16:10:33.545Z,3.10
2022-09-26T16:15:36.226Z,2.40
2022-09-26T16:20:38.834Z,2.60
2022-09-26T16:25:47.956Z,2.50
2022-09-26T16:30:59.410Z,2.30
2022-09-26T16:36:09.772Z,2.63
2022-09-26T16:41:59.526Z,2.40
2022-09-26T16:46:55.243Z,2.53
2022-09-26T16:52:21.021Z,2.25
2022-09-26T16:57:40.048Z,2.25
2022-09-26T17:02:42.851Z,1.70
2022-09-26T17:07:47.102Z,1.70
2022-09-26T17:12:53.365Z,1.50
2022-09-26T17:17:57.830Z,2.10
2022-09-26T17:23:16.881Z,2.47
2022-09-26T17:28:36.275Z,1.85
2022-09-26T17:33:42.340Z,2.33
2022-09-26T17:38:45.178Z,2.78
2022-09-26T17:43:47.753Z,2.15
2022-09-26T17:48:50.393Z,2.10
2022-09-26T17:53:53.014Z,2.13
2022-09-26T17:58:57.033Z,2.38
2022-09-26T18:04:06.460Z,2.03
2022-09-26T18:09:12.319Z,2.30
2022-09-26T18:14:17.497Z,3.33
2022-09-26T18:19:21.248Z,2.70
2022-09-26T18:24:28.783Z,2.83
2022-09-26T18:29:36.065Z,2.95
2022-09-26T18:34:38.605Z,2.70
2022-09-26T18:39:41.394Z,3.58
2022-09-26T18:44:44.122Z,3.15
2022-09-26T18:49:47.296Z,11.07
2022-09-26T18:55:09.874Z,3.67
2022-09-26T19:00:12.801Z,2.90
2022-09-26T19:05:16.539Z,2.33
2022-09-26T19:10:23.016Z,3.28
2022-09-26T19:15:25.982Z,3.40
2022-09-26T19:20:28.952Z,2.80
2022-09-26T19:25:31.699Z,3.40
2022-09-26T19:30:34.585Z,3.20
2022-09-26T19:35:42.134Z,3.80
2022-09-26T19:40:48.638Z,3.65
2022-09-26T19:45:54.306Z,3.90
2022-09-26T19:50:56.976Z,3.42
2022-09-26T19:56:00.904Z,9.93
2022-09-26T20:01:15.295Z,4.07
2022-09-26T20:06:23.711Z,4.70
2022-09-26T20:11:27.214Z,5.00
2022-09-26T20:16:34.637Z,5.07
2022-09-26T20:21:37.321Z,4.18
2022-09-26T20:26:41.004Z,4.30
2022-09-26T20:31:43.775Z,4.68
2022-09-26T20:36:49.660Z,4.70
2022-09-26T20:41:53.098Z,4.90
2022-09-26T20:47:00.149Z,4.20
2022-09-26T20:52:03.581Z,4.05
2022-09-26T20:57:06.156Z,4.88
2022-09-26T21:02:39.220Z,4.72
2022-09-26T21:07:42.466Z,4.32
2022-09-26T21:12:44.984Z,4.95
2022-09-26T21:17:49.028Z,6.00
2022-09-26T21:22:52.755Z,5.20
2022-09-26T21:28:28.974Z,5.72
2022-09-26T21:33:31.514Z,5.47
2022-09-26T21:38:34.058Z,5.40
2022-09-26T21:43:41.963Z,6.53
2022-09-26T21:48:44.522Z,6.78
2022-09-26T21:53:56.379Z,6.22
2022-09-26T21:58:59.087Z,5.65
2022-09-26T22:04:01.818Z,6.45
2022-09-26T22:09:04.553Z,5.60
2022-09-26T22:14:07.329Z,5.93
2022-09-26T22:19:10.115Z,5.95
2022-09-26T22:24:13.522Z,7.60
2022-09-26T22:29:16.357Z,6.70
2022-09-26T22:34:20.237Z,6.95
2022-09-26T22:39:22.781Z,6.28
2022-09-26T22:44:25.377Z,6.43
2022-09-26T22:49:27.992Z,5.85
2022-09-26T22:54:30.613Z,5.97
2022-09-26T22:59:33.202Z,5.75
2022-09-26T23:04:56.061Z,6.18
2022-09-26T23:10:00.348Z,5.63
2022-09-26T23:15:03.111Z,5.57
2022-09-26T23:20:06.988Z,10.70
2022-09-26T23:25:09.860Z,8.70
2022-09-26T23:30:13.415Z,6.20
2022-09-26T23:35:16.253Z,6.05
2022-09-26T23:40:18.881Z,5.60
2022-09-26T23:45:21.649Z,5.28
2022-09-26T23:50:24.427Z,6.68
2022-09-26T23:55:27.027Z,6.15
